sensor_id;sensor_type;location;lat;lon;timestamp;pressure;altitude;pressure_sealevel;temperature;humidity
7824;BME280;3957;48.61947800;9.05303100;2023-08-31T00:00:13;95606.16;;;10.61;100.00
7824;BME280;3957;48.61947800;9.05303100;2023-08-31T00:01:16;95608.06;;;10.54;100.00
7824;BME280;3957;48.61947800;9.05303100;2023-08-31T00:02:18;95601.72;;;10.48;100.00
7824;BME280;3957;48.61947800;9.05303100;2023-08-31T00:03:20;95603.34;;;10.49;100.00
7824;BME280;3957;48.61947800;9.05303100;2023-08-31T00:04:21;95605.84;;;10.51;100.00
7824;BME280;3957;48.61947800;9.05303100;2023-08-31T00:05:23;95608.50;;;10.51;100.00
7824;BME280;3957;48.61947800;9.05303100;2023-08-31T00:06:26;95603.78;;;10.46;100.00
7824;BME280;3957;48.61947800;9.05303100;2023-08-31T00:07:28;95606.09;;;10.43;100.00
7824;BME280;3957;48.61947800;9.05303100;2023-08-31T00:08:30;95609.56;;;10.43;100.00
7824;BME280;3957;48.61947800;9.05303100;2023-08-31T00:09:31;95598.25;;;10.41;100.00
7824;BME280;3957;48.61947800;9.05303100;2023-08-31T00:10:36;95604.41;;;10.48;100.00
7824;BME280;3957;48.61947800;9.05303100;2023-08-31T00:11:37;95596.19;;;10.43;100.00
7824;BME280;3957;48.61947800;9.05303100;2023-08-31T00:12:39;95598.44;;;10.46;100.00
7824;BME280;3957;48.61947800;9.05303100;2023-08-31T00:13:40;95599.63;;;10.50;100.00
7824;BME280;3957;48.61947800;9.05303100;2023-08-31T00:14:42;95595.75;;;10.46;100.00
7824;BME280;3957;48.61947800;9.05303100;2023-08-31T00:15:46;95597.00;;;10.44;100.00
7824;BME280;3957;48.61947800;9.05303100;2023-08-31T00:16:47;95604.81;;;10.45;100.00
7824;BME280;3957;48.61947800;9.05303100;2023-08-31T00:17:49;95601.75;;;10.42;100.00
7824;BME280;3957;48.61947800;9.05303100;2023-08-31T00:18:52;95601.53;;;10.43;100.00
7824;BME280;3957;48.61947800;9.05303100;2023-08-31T00:19:53;95599.09;;;10.42;100.00
7824;BME280;3957;48.61947800;9.05303100;2023-08-31T00:20:56;95604.44;;;10.42;100.00
7824;BME280;3957;48.61947800;9.05303100;2023-08-31T00:21:57;95604.66;;;10.40;100.00
7824;BME280;3957;48.61947800;9.05303100;2023-08-31T00:22:59;95607.91;;;10.42;100.00
7824;BME280;3957;48.61947800;9.05303100;2023-08-31T00:24:01;95612.66;;;10.47;100.00
7824;BME280;3957;48.61947800;9.05303100;2023-08-31T00:25:03;95604.22;;;10.43;100.00
7824;BME280;3957;48.61947800;9.05303100;2023-08-31T00:26:06;95606.69;;;10.45;100.00
7824;BME280;3957;48.61947800;9.05303100;2023-08-31T00:27:10;95608.75;;;10.43;100.00
7824;BME280;3957;48.61947800;9.05303100;2023-08-31T00:28:12;95610.97;;;10.52;100.00
7824;BME280;3957;48.61947800;9.05303100;2023-08-31T00:29:13;95615.06;;;10.55;100.00
7824;BME280;3957;48.61947800;9.05303100;2023-08-31T00:30:18;95612.94;;;10.64;100.00
7824;BME280;3957;48.61947800;9.05303100;2023-08-31T00:31:19;95612.56;;;10.53;100.00
7824;BME280;3957;48.61947800;9.05303100;2023-08-31T00:32:23;95613.22;;;10.49;100.00
7824;BME280;3957;48.61947800;9.05303100;2023-08-31T00:33:26;95617.34;;;10.51;100.00
7824;BME280;3957;48.61947800;9.05303100;2023-08-31T00:34:27;95615.69;;;10.50;100.00
7824;BME280;3957;48.61947800;9.05303100;2023-08-31T00:35:29;95611.81;;;10.46;100.00
7824;BME280;3957;48.61947800;9.05303100;2023-08-31T00:36:31;95611.22;;;10.44;100.00
7824;BME280;3957;48.61947800;9.05303100;2023-08-31T00:37:33;95614.09;;;10.43;100.00
7824;BME280;3957;48.61947800;9.05303100;2023-08-31T00:38:35;95614.91;;;10.43;100.00
7824;BME280;3957;48.61947800;9.05303100;2023-08-31T00:39:37;95619.03;;;10.46;100.00
7824;BME280;3957;48.61947800;9.05303100;2023-08-31T00:40:40;95616.56;;;10.44;100.00
7824;BME280;3957;48.61947800;9.05303100;2023-08-31T00:41:44;95607.69;;;10.44;100.00
7824;BME280;3957;48.61947800;9.05303100;2023-08-31T00:42:47;95606.09;;;10.43;100.00
7824;BME280;3957;48.61947800;9.05303100;2023-08-31T00:43:49;95605.44;;;10.47;100.00
7824;BME280;3957;48.61947800;9.05303100;2023-08-31T00:44:50;95611.19;;;10.51;100.00
7824;BME280;3957;48.61947800;9.05303100;2023-08-31T00:45:54;95613.22;;;10.49;100.00
7824;BME280;3957;48.61947800;9.05303100;2023-08-31T00:47:00;95614.25;;;10.48;100.00
7824;BME280;3957;48.61947800;9.05303100;2023-08-31T00:48:04;95608.75;;;10.43;100.00
7824;BME280;3957;48.61947800;9.05303100;2023-08-31T00:49:06;95617.59;;;10.43;100.00
7824;BME280;3957;48.61947800;9.05303100;2023-08-31T00:50:09;95612.69;;;10.40;100.00
7824;BME280;3957;48.61947800;9.05303100;2023-08-31T00:51:12;95614.50;;;10.40;100.00
7824;BME280;3957;48.61947800;9.05303100;2023-08-31T00:52:14;95609.16;;;10.40;100.00
7824;BME280;3957;48.61947800;9.05303100;2023-08-31T00:53:18;95609.97;;;10.47;100.00
7824;BME280;3957;48.61947800;9.05303100;2023-08-31T00:54:20;95609.38;;;10.38;100.00
7824;BME280;3957;48.61947800;9.05303100;2023-08-31T00:55:23;95606.94;;;10.36;100.00
7824;BME280;3957;48.61947800;9.05303100;2023-08-31T00:56:25;95617.19;;;10.33;100.00
7824;BME280;3957;48.61947800;9.05303100;2023-08-31T00:57:27;95612.94;;;10.25;100.00
7824;BME280;3957;48.61947800;9.05303100;2023-08-31T00:58:29;95607.78;;;10.24;100.00
7824;BME280;3957;48.61947800;9.05303100;2023-08-31T00:59:31;95611.09;;;10.19;100.00
7824;BME280;3957;48.61947800;9.05303100;2023-08-31T01:00:43;95609.47;;;10.18;100.00
7824;BME280;3957;48.61947800;9.05303100;2023-08-31T01:01:55;95603.94;;;10.13;100.00
7824;BME280;3957;48.61947800;9.05303100;2023-08-31T01:03:05;95616.69;;;10.11;100.00
7824;BME280;3957;48.61947800;9.05303100;2023-08-31T01:04:21;95608.66;;;10.11;100.00
7824;BME280;3957;48.61947800;9.05303100;2023-08-31T01:05:33;95609.31;;;10.06;100.00
7824;BME280;3957;48.61947800;9.05303100;2023-08-31T01:06:50;95603.75;;;10.01;100.00
7824;BME280;3957;48.61947800;9.05303100;2023-08-31T01:08:05;95607.88;;;10.03;100.00
7824;BME280;3957;48.61947800;9.05303100;2023-08-31T01:11:08;95605.00;;;9.98;100.00
7824;BME280;3957;48.61947800;9.05303100;2023-08-31T01:12:35;95605.19;;;10.03;100.00
7824;BME280;3957;48.61947800;9.05303100;2023-08-31T01:13:40;95609.50;;;10.11;100.00
7824;BME280;3957;48.61947800;9.05303100;2023-08-31T01:14:48;95611.56;;;10.02;100.00
7824;BME280;3957;48.61947800;9.05303100;2023-08-31T01:15:54;95612.00;;;9.99;100.00
7824;BME280;3957;48.61947800;9.05303100;2023-08-31T01:16:58;95619.41;;;9.97;100.00
7824;BME280;3957;48.61947800;9.05303100;2023-08-31T01:18:03;95621.47;;;9.95;100.00
7824;BME280;3957;48.61947800;9.05303100;2023-08-31T01:19:13;95617.16;;;9.94;100.00
7824;BME280;3957;48.61947800;9.05303100;2023-08-31T01:20:42;95613.69;;;9.87;100.00
7824;BME280;3957;48.61947800;9.05303100;2023-08-31T01:21:47;95617.59;;;9.91;100.00
7824;BME280;3957;48.61947800;9.05303100;2023-08-31T01:22:57;95611.84;;;9.87;100.00
7824;BME280;3957;48.61947800;9.05303100;2023-08-31T01:24:01;95619.47;;;9.84;100.00
7824;BME280;3957;48.61947800;9.05303100;2023-08-31T01:25:03;95622.34;;;9.89;100.00
7824;BME280;3957;48.61947800;9.05303100;2023-08-31T01:26:06;95620.69;;;9.88;100.00
7824;BME280;3957;48.61947800;9.05303100;2023-08-31T01:27:08;95627.06;;;9.87;100.00
7824;BME280;3957;48.61947800;9.05303100;2023-08-31T01:28:10;95628.91;;;9.86;100.00
7824;BME280;3957;48.61947800;9.05303100;2023-08-31T01:29:12;95625.44;;;9.86;100.00
7824;BME280;3957;48.61947800;9.05303100;2023-08-31T01:30:15;95625.22;;;9.87;100.00
7824;BME280;3957;48.61947800;9.05303100;2023-08-31T01:31:17;95622.72;;;9.93;100.00
7824;BME280;3957;48.61947800;9.05303100;2023-08-31T01:32:21;95620.91;;;9.86;100.00
7824;BME280;3957;48.61947800;9.05303100;2023-08-31T01:33:22;95624.81;;;9.84;100.00
7824;BME280;3957;48.61947800;9.05303100;2023-08-31T01:34:24;95624.00;;;9.83;100.00
7824;BME280;3957;48.61947800;9.05303100;2023-08-31T01:35:25;95629.75;;;9.80;100.00
7824;BME280;3957;48.61947800;9.05303100;2023-08-31T01:36:29;95628.50;;;9.83;100.00
7824;BME280;3957;48.61947800;9.05303100;2023-08-31T01:37:44;95626.69;;;9.77;100.00
7824;BME280;3957;48.61947800;9.05303100;2023-08-31T01:38:50;95629.94;;;9.79;100.00
7824;BME280;3957;48.61947800;9.05303100;2023-08-31T01:39:56;95632.03;;;9.77;100.00
7824;BME280;3957;48.61947800;9.05303100;2023-08-31T01:41:04;95639.63;;;9.73;100.00
7824;BME280;3957;48.61947800;9.05303100;2023-08-31T01:42:08;95637.97;;;9.72;100.00
7824;BME280;3957;48.61947800;9.05303100;2023-08-31T01:43:12;95637.16;;;9.72;100.00
7824;BME280;3957;48.61947800;9.05303100;2023-08-31T01:44:16;95642.09;;;9.75;100.00
7824;BME280;3957;48.61947800;9.05303100;2023-08-31T01:45:21;95638.81;;;9.73;100.00
7824;BME280;3957;48.61947800;9.05303100;2023-08-31T01:46:23;95649.28;;;9.74;100.00
7824;BME280;3957;48.61947800;9.05303100;2023-08-31T01:47:26;95649.50;;;9.73;100.00
7824;BME280;3957;48.61947800;9.05303100;2023-08-31T01:48:29;95650.75;;;9.70;100.00
7824;BME280;3957;48.61947800;9.05303100;2023-08-31T01:49:40;95648.28;;;9.75;100.00
7824;BME280;3957;48.61947800;9.05303100;2023-08-31T01:50:42;95638.41;;;9.76;100.00
7824;BME280;3957;48.61947800;9.05303100;2023-08-31T01:51:45;95651.53;;;9.77;100.00
7824;BME280;3957;48.61947800;9.05303100;2023-08-31T01:52:46;95648.88;;;9.77;100.00
7824;BME280;3957;48.61947800;9.05303100;2023-08-31T01:53:48;95643.53;;;9.77;100.00
7824;BME280;3957;48.61947800;9.05303100;2023-08-31T01:54:49;95642.06;;;9.88;100.00
7824;BME280;3957;48.61947800;9.05303100;2023-08-31T01:55:51;95645.78;;;9.80;100.00
7824;BME280;3957;48.61947800;9.05303100;2023-08-31T01:56:53;95634.47;;;9.85;100.00
7824;BME280;3957;48.61947800;9.05303100;2023-08-31T01:57:54;95640.84;;;9.77;100.00
7824;BME280;3957;48.61947800;9.05303100;2023-08-31T01:59:00;95638.81;;;9.73;100.00
7824;BME280;3957;48.61947800;9.05303100;2023-08-31T02:00:02;95636.97;;;9.66;100.00
7824;BME280;3957;48.61947800;9.05303100;2023-08-31T02:01:14;95635.75;;;9.62;100.00
7824;BME280;3957;48.61947800;9.05303100;2023-08-31T02:02:16;95639.66;;;9.60;100.00
7824;BME280;3957;48.61947800;9.05303100;2023-08-31T02:03:18;95643.16;;;9.60;100.00
7824;BME280;3957;48.61947800;9.05303100;2023-08-31T02:04:19;95636.97;;;9.60;100.00
7824;BME280;3957;48.61947800;9.05303100;2023-08-31T02:05:22;95645.84;;;9.60;100.00
7824;BME280;3957;48.61947800;9.05303100;2023-08-31T02:06:26;95647.47;;;9.61;100.00
7824;BME280;3957;48.61947800;9.05303100;2023-08-31T02:07:28;95647.66;;;9.60;100.00
7824;BME280;3957;48.61947800;9.05303100;2023-08-31T02:08:30;95649.53;;;9.59;100.00
7824;BME280;3957;48.61947800;9.05303100;2023-08-31T02:09:31;95645.84;;;9.60;100.00
7824;BME280;3957;48.61947800;9.05303100;2023-08-31T02:10:33;95648.72;;;9.65;100.00
7824;BME280;3957;48.61947800;9.05303100;2023-08-31T02:11:34;95644.78;;;9.68;100.00
7824;BME280;3957;48.61947800;9.05303100;2023-08-31T02:12:39;95647.88;;;9.65;100.00
7824;BME280;3957;48.61947800;9.05303100;2023-08-31T02:13:41;95643.75;;;9.62;100.00
7824;BME280;3957;48.61947800;9.05303100;2023-08-31T02:14:43;95645.81;;;9.67;100.00
7824;BME280;3957;48.61947800;9.05303100;2023-08-31T02:15:46;95639.66;;;9.60;100.00
7824;BME280;3957;48.61947800;9.05303100;2023-08-31T02:16:47;95637.19;;;9.65;100.00
7824;BME280;3957;48.61947800;9.05303100;2023-08-31T02:17:49;95643.59;;;9.57;100.00
7824;BME280;3957;48.61947800;9.05303100;2023-08-31T02:18:50;95641.09;;;9.62;100.00
7824;BME280;3957;48.61947800;9.05303100;2023-08-31T02:19:52;95636.38;;;9.58;100.00
7824;BME280;3957;48.61947800;9.05303100;2023-08-31T02:20:53;95638.03;;;9.59;100.00
7824;BME280;3957;48.61947800;9.05303100;2023-08-31T02:21:55;95645.00;;;9.60;100.00
7824;BME280;3957;48.61947800;9.05303100;2023-08-31T02:22:56;95657.13;;;9.62;100.00
7824;BME280;3957;48.61947800;9.05303100;2023-08-31T02:23:58;95651.97;;;9.61;100.00
7824;BME280;3957;48.61947800;9.05303100;2023-08-31T02:24:59;95655.06;;;9.64;100.00
7824;BME280;3957;48.61947800;9.05303100;2023-08-31T02:26:02;95645.81;;;9.67;100.00
7824;BME280;3957;48.61947800;9.05303100;2023-08-31T02:27:04;95647.03;;;9.71;100.00
7824;BME280;3957;48.61947800;9.05303100;2023-08-31T02:28:05;95650.53;;;9.72;100.00
7824;BME280;3957;48.61947800;9.05303100;2023-08-31T02:29:07;95648.66;;;9.72;100.00
7824;BME280;3957;48.61947800;9.05303100;2023-08-31T02:30:08;95653.63;;;9.75;100.00
7824;BME280;3957;48.61947800;9.05303100;2023-08-31T02:31:10;95656.47;;;9.80;100.00
7824;BME280;3957;48.61947800;9.05303100;2023-08-31T02:32:13;95654.41;;;9.82;100.00
7824;BME280;3957;48.61947800;9.05303100;2023-08-31T02:33:14;95653.59;;;9.82;100.00
7824;BME280;3957;48.61947800;9.05303100;2023-08-31T02:34:16;95654.63;;;9.81;100.00
7824;BME280;3957;48.61947800;9.05303100;2023-08-31T02:35:18;95650.94;;;9.75;100.00
7824;BME280;3957;48.61947800;9.05303100;2023-08-31T02:36:19;95657.75;;;9.71;100.00
7824;BME280;3957;48.61947800;9.05303100;2023-08-31T02:37:23;95654.66;;;9.67;100.00
7824;BME280;3957;48.61947800;9.05303100;2023-08-31T02:38:25;95649.72;;;9.64;100.00
7824;BME280;3957;48.61947800;9.05303100;2023-08-31T02:39:27;95659.78;;;9.62;100.00
7824;BME280;3957;48.61947800;9.05303100;2023-08-31T02:40:29;95661.03;;;9.60;100.00
7824;BME280;3957;48.61947800;9.05303100;2023-08-31T02:41:30;95658.34;;;9.60;100.00
7824;BME280;3957;48.61947800;9.05303100;2023-08-31T02:42:32;95658.56;;;9.58;100.00
7824;BME280;3957;48.61947800;9.05303100;2023-08-31T02:43:33;95661.44;;;9.57;100.00
7824;BME280;3957;48.61947800;9.05303100;2023-08-31T02:44:35;95664.31;;;9.55;100.00
7824;BME280;3957;48.61947800;9.05303100;2023-08-31T02:45:36;95658.19;;;9.55;100.00
7824;BME280;3957;48.61947800;9.05303100;2023-08-31T02:46:38;95662.06;;;9.52;100.00
7824;BME280;3957;48.61947800;9.05303100;2023-08-31T02:47:40;95666.78;;;9.57;100.00
7824;BME280;3957;48.61947800;9.05303100;2023-08-31T02:48:42;95668.22;;;9.52;100.00
7824;BME280;3957;48.61947800;9.05303100;2023-08-31T02:49:43;95670.09;;;9.52;100.00
7824;BME280;3957;48.61947800;9.05303100;2023-08-31T02:50:45;95678.69;;;9.54;100.00
7824;BME280;3957;48.61947800;9.05303100;2023-08-31T02:51:47;95666.59;;;9.51;100.00
7824;BME280;3957;48.61947800;9.05303100;2023-08-31T02:52:50;95667.22;;;9.53;100.00
7824;BME280;3957;48.61947800;9.05303100;2023-08-31T02:53:52;95664.97;;;9.50;100.00
7824;BME280;3957;48.61947800;9.05303100;2023-08-31T02:54:54;95666.19;;;9.48;100.00
7824;BME280;3957;48.61947800;9.05303100;2023-08-31T02:55:56;95666.41;;;9.46;100.00
7824;BME280;3957;48.61947800;9.05303100;2023-08-31T02:56:58;95674.19;;;9.41;100.00
7824;BME280;3957;48.61947800;9.05303100;2023-08-31T02:58:00;95666.63;;;9.38;100.00
7824;BME280;3957;48.61947800;9.05303100;2023-08-31T02:59:02;95669.28;;;9.38;100.00
7824;BME280;3957;48.61947800;9.05303100;2023-08-31T03:00:03;95663.94;;;9.38;100.00
7824;BME280;3957;48.61947800;9.05303100;2023-08-31T03:01:12;95664.38;;;9.35;100.00
7824;BME280;3957;48.61947800;9.05303100;2023-08-31T03:02:18;95668.66;;;9.29;100.00
7824;BME280;3957;48.61947800;9.05303100;2023-08-31T03:03:19;95667.41;;;9.39;100.00
7824;BME280;3957;48.61947800;9.05303100;2023-08-31T03:04:21;95665.16;;;9.35;100.00
7824;BME280;3957;48.61947800;9.05303100;2023-08-31T03:05:23;95668.06;;;9.34;100.00
7824;BME280;3957;48.61947800;9.05303100;2023-08-31T03:06:25;95670.72;;;9.34;100.00
7824;BME280;3957;48.61947800;9.05303100;2023-08-31T03:07:27;95670.94;;;9.32;100.00
7824;BME280;3957;48.61947800;9.05303100;2023-08-31T03:08:28;95671.94;;;9.31;100.00
7824;BME280;3957;48.61947800;9.05303100;2023-08-31T03:09:30;95674.41;;;9.26;100.00
7824;BME280;3957;48.61947800;9.05303100;2023-08-31T03:10:33;95673.38;;;9.27;100.00
7824;BME280;3957;48.61947800;9.05303100;2023-08-31T03:11:34;95671.94;;;9.31;100.00
7824;BME280;3957;48.61947800;9.05303100;2023-08-31T03:12:36;95680.56;;;9.33;100.00
7824;BME280;3957;48.61947800;9.05303100;2023-08-31T03:13:37;95678.53;;;9.35;100.00
7824;BME280;3957;48.61947800;9.05303100;2023-08-31T03:14:39;95674.19;;;9.34;100.00
7824;BME280;3957;48.61947800;9.05303100;2023-08-31T03:15:41;95677.50;;;9.36;100.00
7824;BME280;3957;48.61947800;9.05303100;2023-08-31T03:16:43;95679.13;;;9.38;100.00
7824;BME280;3957;48.61947800;9.05303100;2023-08-31T03:17:44;95685.50;;;9.43;100.00
7824;BME280;3957;48.61947800;9.05303100;2023-08-31T03:18:46;95679.53;;;9.41;100.00
7824;BME280;3957;48.61947800;9.05303100;2023-08-31T03:19:48;95672.16;;;9.43;100.00
7824;BME280;3957;48.61947800;9.05303100;2023-08-31T03:20:50;95677.50;;;9.43;100.00
7824;BME280;3957;48.61947800;9.05303100;2023-08-31T03:21:52;95676.25;;;9.46;100.00
7824;BME280;3957;48.61947800;9.05303100;2023-08-31T03:22:55;95677.91;;;9.47;100.00
7824;BME280;3957;48.61947800;9.05303100;2023-08-31T03:23:59;95675.00;;;9.55;100.00
7824;BME280;3957;48.61947800;9.05303100;2023-08-31T03:25:00;95680.34;;;9.55;100.00
7824;BME280;3957;48.61947800;9.05303100;2023-08-31T03:26:09;95673.56;;;9.52;100.00
7824;BME280;3957;48.61947800;9.05303100;2023-08-31T03:27:10;95673.19;;;9.56;100.00
7824;BME280;3957;48.61947800;9.05303100;2023-08-31T03:28:13;95678.31;;;9.57;100.00
7824;BME280;3957;48.61947800;9.05303100;2023-08-31T03:29:15;95683.22;;;9.53;100.00
7824;BME280;3957;48.61947800;9.05303100;2023-08-31T03:30:16;95673.19;;;9.56;100.00
7824;BME280;3957;48.61947800;9.05303100;2023-08-31T03:31:18;95669.66;;;9.55;100.00
7824;BME280;3957;48.61947800;9.05303100;2023-08-31T03:32:19;95671.53;;;9.55;100.00
7824;BME280;3957;48.61947800;9.05303100;2023-08-31T03:33:21;95669.66;;;9.55;100.00
7824;BME280;3957;48.61947800;9.05303100;2023-08-31T03:34:23;95669.25;;;9.58;100.00
7824;BME280;3957;48.61947800;9.05303100;2023-08-31T03:35:25;95671.31;;;9.56;100.00
7824;BME280;3957;48.61947800;9.05303100;2023-08-31T03:36:32;95678.31;;;9.57;100.00
7824;BME280;3957;48.61947800;9.05303100;2023-08-31T03:37:35;95677.88;;;9.60;100.00
7824;BME280;3957;48.61947800;9.05303100;2023-08-31T03:38:37;95680.34;;;9.62;100.00
7824;BME280;3957;48.61947800;9.05303100;2023-08-31T03:39:39;95676.66;;;9.63;100.00
7824;BME280;3957;48.61947800;9.05303100;2023-08-31T03:40:42;95679.72;;;9.66;100.00
7824;BME280;3957;48.61947800;9.05303100;2023-08-31T03:41:45;95685.25;;;9.72;100.00
7824;BME280;3957;48.61947800;9.05303100;2023-08-31T03:42:47;95677.44;;;9.77;100.00
7824;BME280;3957;48.61947800;9.05303100;2023-08-31T03:43:48;95675.38;;;9.79;100.00
7824;BME280;3957;48.61947800;9.05303100;2023-08-31T03:44:55;95681.34;;;9.74;100.00
7824;BME280;3957;48.61947800;9.05303100;2023-08-31T03:45:59;95684.03;;;9.74;100.00
7824;BME280;3957;48.61947800;9.05303100;2023-08-31T03:47:01;95678.28;;;9.70;100.00
7824;BME280;3957;48.61947800;9.05303100;2023-08-31T03:48:03;95691.81;;;9.82;100.00
7824;BME280;3957;48.61947800;9.05303100;2023-08-31T03:49:04;95683.00;;;9.75;100.00
7824;BME280;3957;48.61947800;9.05303100;2023-08-31T03:50:06;95687.28;;;9.76;100.00
7824;BME280;3957;48.61947800;9.05303100;2023-08-31T03:51:08;95687.13;;;9.78;100.00
7824;BME280;3957;48.61947800;9.05303100;2023-08-31T03:52:10;95685.47;;;9.77;100.00
7824;BME280;3957;48.61947800;9.05303100;2023-08-31T03:53:11;95689.38;;;9.74;100.00
7824;BME280;3957;48.61947800;9.05303100;2023-08-31T03:54:14;95693.69;;;9.75;100.00
7824;BME280;3957;48.61947800;9.05303100;2023-08-31T03:55:15;95692.84;;;9.81;100.00
7824;BME280;3957;48.61947800;9.05303100;2023-08-31T03:56:17;95690.19;;;9.81;100.00
7824;BME280;3957;48.61947800;9.05303100;2023-08-31T03:57:18;95693.47;;;9.83;100.00
7824;BME280;3957;48.61947800;9.05303100;2023-08-31T03:58:21;95690.59;;;9.85;100.00
7824;BME280;3957;48.61947800;9.05303100;2023-08-31T03:59:25;95690.38;;;9.86;100.00
7824;BME280;3957;48.61947800;9.05303100;2023-08-31T04:00:26;95694.69;;;9.87;100.00
7824;BME280;3957;48.61947800;9.05303100;2023-08-31T04:01:28;95693.88;;;9.80;100.00
7824;BME280;3957;48.61947800;9.05303100;2023-08-31T04:02:29;95691.22;;;9.74;100.00
7824;BME280;3957;48.61947800;9.05303100;2023-08-31T04:03:32;95692.47;;;9.71;100.00
7824;BME280;3957;48.61947800;9.05303100;2023-08-31T04:04:34;95702.09;;;9.72;100.00
7824;BME280;3957;48.61947800;9.05303100;2023-08-31T04:05:36;95697.81;;;9.64;100.00
7824;BME280;3957;48.61947800;9.05303100;2023-08-31T04:06:37;95694.50;;;9.62;100.00
7824;BME280;3957;48.61947800;9.05303100;2023-08-31T04:07:40;95696.38;;;9.62;100.00
7824;BME280;3957;48.61947800;9.05303100;2023-08-31T04:08:42;95693.91;;;9.60;100.00
7824;BME280;3957;48.61947800;9.05303100;2023-08-31T04:09:44;95700.50;;;9.58;100.00
7824;BME280;3957;48.61947800;9.05303100;2023-08-31T04:10:45;95698.84;;;9.57;100.00
7824;BME280;3957;48.61947800;9.05303100;2023-08-31T04:11:48;95698.03;;;9.56;100.00
7824;BME280;3957;48.61947800;9.05303100;2023-08-31T04:12:49;95705.63;;;9.59;100.00
7824;BME280;3957;48.61947800;9.05303100;2023-08-31T04:13:51;95702.94;;;9.59;100.00
7824;BME280;3957;48.61947800;9.05303100;2023-08-31T04:14:52;95701.50;;;9.63;100.00
7824;BME280;3957;48.61947800;9.05303100;2023-08-31T04:15:54;95699.47;;;9.59;100.00
7824;BME280;3957;48.61947800;9.05303100;2023-08-31T04:16:57;95703.75;;;9.60;100.00
7824;BME280;3957;48.61947800;9.05303100;2023-08-31T04:17:58;95701.50;;;9.57;100.00
7824;BME280;3957;48.61947800;9.05303100;2023-08-31T04:19:00;95705.84;;;9.51;100.00
7824;BME280;3957;48.61947800;9.05303100;2023-08-31T04:20:01;95703.59;;;9.48;100.00
7824;BME280;3957;48.61947800;9.05303100;2023-08-31T04:21:03;95710.97;;;9.52;100.00
7824;BME280;3957;48.61947800;9.05303100;2023-08-31T04:22:05;95708.72;;;9.49;100.00
7824;BME280;3957;48.61947800;9.05303100;2023-08-31T04:23:08;95701.94;;;9.53;100.00
7824;BME280;3957;48.61947800;9.05303100;2023-08-31T04:24:09;95707.06;;;9.55;100.00
7824;BME280;3957;48.61947800;9.05303100;2023-08-31T04:25:11;95700.06;;;9.54;100.00
7824;BME280;3957;48.61947800;9.05303100;2023-08-31T04:26:13;95700.69;;;9.56;100.00
7824;BME280;3957;48.61947800;9.05303100;2023-08-31T04:27:15;95700.91;;;9.55;100.00
7824;BME280;3957;48.61947800;9.05303100;2023-08-31T04:28:17;95697.59;;;9.52;100.00
7824;BME280;3957;48.61947800;9.05303100;2023-08-31T04:29:18;95709.94;;;9.60;100.00
7824;BME280;3957;48.61947800;9.05303100;2023-08-31T04:30:20;95703.38;;;9.56;100.00
7824;BME280;3957;48.61947800;9.05303100;2023-08-31T04:31:21;95704.59;;;9.53;100.00
7824;BME280;3957;48.61947800;9.05303100;2023-08-31T04:32:23;95709.53;;;9.50;100.00
7824;BME280;3957;48.61947800;9.05303100;2023-08-31T04:33:25;95707.69;;;9.50;100.00
7824;BME280;3957;48.61947800;9.05303100;2023-08-31T04:34:26;95704.59;;;9.47;100.00
7824;BME280;3957;48.61947800;9.05303100;2023-08-31T04:35:28;95704.22;;;9.43;100.00
7824;BME280;3957;48.61947800;9.05303100;2023-08-31T04:36:29;95709.94;;;9.40;100.00
7824;BME280;3957;48.61947800;9.05303100;2023-08-31T04:37:32;95708.72;;;9.43;100.00
7824;BME280;3957;48.61947800;9.05303100;2023-08-31T04:38:34;95706.47;;;9.46;100.00
7824;BME280;3957;48.61947800;9.05303100;2023-08-31T04:39:35;95705.84;;;9.44;100.00
7824;BME280;3957;48.61947800;9.05303100;2023-08-31T04:40:37;95699.25;;;9.40;100.00
7824;BME280;3957;48.61947800;9.05303100;2023-08-31T04:41:38;95710.38;;;9.44;100.00
7824;BME280;3957;48.61947800;9.05303100;2023-08-31T04:42:40;95711.38;;;9.43;100.00
7824;BME280;3957;48.61947800;9.05303100;2023-08-31T04:43:41;95702.56;;;9.42;100.00
7824;BME280;3957;48.61947800;9.05303100;2023-08-31T04:44:43;95710.16;;;9.39;100.00
7824;BME280;3957;48.61947800;9.05303100;2023-08-31T04:45:44;95712.00;;;9.45;100.00
7824;BME280;3957;48.61947800;9.05303100;2023-08-31T04:46:46;95710.97;;;9.52;100.00
7824;BME280;3957;48.61947800;9.05303100;2023-08-31T04:47:48;95719.41;;;9.49;100.00
7824;BME280;3957;48.61947800;9.05303100;2023-08-31T04:48:51;95709.94;;;9.47;100.00
7824;BME280;3957;48.61947800;9.05303100;2023-08-31T04:49:53;95712.19;;;9.50;100.00
7824;BME280;3957;48.61947800;9.05303100;2023-08-31T04:50:58;95714.47;;;9.46;100.00
7824;BME280;3957;48.61947800;9.05303100;2023-08-31T04:52:00;95713.63;;;9.46;100.00
7824;BME280;3957;48.61947800;9.05303100;2023-08-31T04:53:01;95719.19;;;9.44;100.00
7824;BME280;3957;48.61947800;9.05303100;2023-08-31T04:54:03;95726.19;;;9.45;100.00
7824;BME280;3957;48.61947800;9.05303100;2023-08-31T04:55:06;95717.13;;;9.40;100.00
7824;BME280;3957;48.61947800;9.05303100;2023-08-31T04:56:13;95719.41;;;9.43;100.00
7824;BME280;3957;48.61947800;9.05303100;2023-08-31T04:57:15;95720.81;;;9.39;100.00
7824;BME280;3957;48.61947800;9.05303100;2023-08-31T04:58:17;95725.34;;;9.38;100.00
7824;BME280;3957;48.61947800;9.05303100;2023-08-31T04:59:19;95722.91;;;9.43;100.00
7824;BME280;3957;48.61947800;9.05303100;2023-08-31T05:00:20;95730.72;;;9.45;100.00
7824;BME280;3957;48.61947800;9.05303100;2023-08-31T05:01:22;95727.81;;;9.46;100.00
7824;BME280;3957;48.61947800;9.05303100;2023-08-31T05:02:23;95730.88;;;9.50;100.00